DEAMA EDXW-EDXW
Flight info
| Callsign | DEAMA |
|---|---|
| Flight time | N/A |
| Altitude | 1000 |
| Route | DCT |
| Aircraft | C172/L-SDE3FGHIRWY/L |
Departure
| Time | 2026-04-23 19:41 |
|---|---|
| Airport | Westerland Sylt Airport (EDXW) |
Arrival
| Time | N/A |
|---|---|
| Airport | Westerland Sylt Airport (EDXW) |
| Time | Latitude | Longitude | Altitude | Speed | Heading |
|---|---|---|---|---|---|
| 2026-04-23 19:20 | 54.92025 | 8.33900 | 42 ft | 0 kts | 86° |
| 2026-04-23 19:21 | 54.92025 | 8.33899 | 42 ft | 0 kts | 85° |
| 2026-04-23 19:22 | 54.92025 | 8.33900 | 42 ft | 0 kts | 86° |
| 2026-04-23 19:22 | 54.92025 | 8.33899 | 42 ft | 0 kts | 86° |
| 2026-04-23 19:30 | 54.92029 | 8.33862 | 42 ft | 9 kts | 253° |
| 2026-04-23 19:31 | 54.92006 | 8.33742 | 40 ft | 8 kts | 249° |
| 2026-04-23 19:31 | 54.91967 | 8.33628 | 36 ft | 8 kts | 257° |
| 2026-04-23 19:31 | 54.91961 | 8.33515 | 34 ft | 6 kts | 264° |
| 2026-04-23 19:31 | 54.91961 | 8.33512 | 34 ft | 0 kts | 263° |
| 2026-04-23 19:32 | 54.91960 | 8.33501 | 34 ft | 0 kts | 261° |
| 2026-04-23 19:32 | 54.91951 | 8.33402 | 36 ft | 14 kts | 262° |
| 2026-04-23 19:33 | 54.91899 | 8.33281 | 37 ft | 18 kts | 225° |
| 2026-04-23 19:33 | 54.91796 | 8.33187 | 37 ft | 15 kts | 195° |
| 2026-04-23 19:33 | 54.91584 | 8.33180 | 32 ft | 14 kts | 182° |
| 2026-04-23 19:34 | 54.91484 | 8.33183 | 28 ft | 14 kts | 165° |
| 2026-04-23 19:34 | 54.91410 | 8.33244 | 27 ft | 10 kts | 162° |
| 2026-04-23 19:34 | 54.91260 | 8.33182 | 30 ft | 11 kts | 190° |
| 2026-04-23 19:35 | 54.91173 | 8.33182 | 32 ft | 16 kts | 181° |
| 2026-04-23 19:35 | 54.91067 | 8.33177 | 31 ft | 14 kts | 195° |
| 2026-04-23 19:35 | 54.90990 | 8.33126 | 34 ft | 10 kts | 205° |
| 2026-04-23 19:35 | 54.90933 | 8.33127 | 34 ft | 9 kts | 152° |
| 2026-04-23 19:36 | 54.90845 | 8.33196 | 33 ft | 16 kts | 166° |
| 2026-04-23 19:36 | 54.90734 | 8.33227 | 31 ft | 16 kts | 178° |
| 2026-04-23 19:36 | 54.90626 | 8.33239 | 28 ft | 15 kts | 179° |
| 2026-04-23 19:36 | 54.90512 | 8.33268 | 26 ft | 19 kts | 162° |
| 2026-04-23 19:37 | 54.90402 | 8.33364 | 25 ft | 17 kts | 144° |
| 2026-04-23 19:37 | 54.90324 | 8.33492 | 24 ft | 15 kts | 129° |
| 2026-04-23 19:37 | 54.90272 | 8.33670 | 24 ft | 17 kts | 107° |
| 2026-04-23 19:37 | 54.90249 | 8.33858 | 24 ft | 13 kts | 96° |
| 2026-04-23 19:38 | 54.90236 | 8.34034 | 24 ft | 16 kts | 94° |
| 2026-04-23 19:38 | 54.90242 | 8.34196 | 24 ft | 17 kts | 84° |
| 2026-04-23 19:38 | 54.90299 | 8.34438 | 27 ft | 21 kts | 52° |
| 2026-04-23 19:38 | 54.90411 | 8.34640 | 33 ft | 23 kts | 46° |
| 2026-04-23 19:39 | 54.90513 | 8.34804 | 35 ft | 16 kts | 41° |
| 2026-04-23 19:39 | 54.90534 | 8.34835 | 36 ft | 0 kts | 36° |
| 2026-04-23 19:39 | 54.90543 | 8.34850 | 36 ft | 12 kts | 42° |
| 2026-04-23 19:39 | 54.90604 | 8.34929 | 36 ft | 10 kts | 2° |
| 2026-04-23 19:40 | 54.90637 | 8.34898 | 34 ft | 0 kts | 329° |
| 2026-04-23 19:40 | 54.90657 | 8.34873 | 34 ft | 21 kts | 322° |
| 2026-04-23 19:40 | 54.90934 | 8.34530 | 39 ft | 73 kts | 324° |
| 2026-04-23 19:40 | 54.91370 | 8.34004 | 206 ft | 82 kts | 324° |
| 2026-04-23 19:41 | 54.91821 | 8.33359 | 466 ft | 84 kts | 316° |
| 2026-04-23 19:41 | 54.92210 | 8.32589 | 730 ft | 84 kts | 285° |
| 2026-04-23 19:41 | 54.92029 | 8.31599 | 880 ft | 98 kts | 233° |
| 2026-04-23 19:41 | 54.91394 | 8.31143 | 980 ft | 111 kts | 184° |
| 2026-04-23 19:42 | 54.90622 | 8.31438 | 1044 ft | 119 kts | 162° |
| 2026-04-23 19:42 | 54.89856 | 8.31956 | 1196 ft | 116 kts | 161° |
| 2026-04-23 19:42 | 54.89095 | 8.32484 | 1284 ft | 119 kts | 158° |
| 2026-04-23 19:42 | 54.88357 | 8.33120 | 1409 ft | 118 kts | 153° |
| 2026-04-23 19:43 | 54.87636 | 8.33817 | 1520 ft | 118 kts | 153° |
| 2026-04-23 19:43 | 54.86951 | 8.34532 | 1550 ft | 103 kts | 141° |
| 2026-04-23 19:43 | 54.86581 | 8.35524 | 1523 ft | 101 kts | 105° |
| 2026-04-23 19:43 | 54.86615 | 8.36755 | 1467 ft | 104 kts | 69° |
| 2026-04-23 19:44 | 54.87013 | 8.37757 | 1217 ft | 97 kts | 39° |
| 2026-04-23 19:44 | 54.87600 | 8.38151 | 925 ft | 86 kts | 358° |
| 2026-04-23 19:44 | 54.88183 | 8.37841 | 655 ft | 87 kts | 333° |
| 2026-04-23 19:44 | 54.88680 | 8.37310 | 461 ft | 83 kts | 323° |
| 2026-04-23 19:45 | 54.89116 | 8.36759 | 329 ft | 73 kts | 323° |
| 2026-04-23 19:45 | 54.89475 | 8.36308 | 311 ft | 54 kts | 323° |
| 2026-04-23 19:45 | 54.89799 | 8.35905 | 249 ft | 59 kts | 325° |
| 2026-04-23 19:45 | 54.90146 | 8.35488 | 146 ft | 61 kts | 324° |
| 2026-04-23 19:46 | 54.90381 | 8.35204 | 76 ft | 61 kts | 324° |
| 2026-04-23 19:46 | 54.90710 | 8.34799 | 33 ft | 54 kts | 324° |
| 2026-04-23 19:46 | 54.91032 | 8.34374 | 99 ft | 66 kts | 324° |
| 2026-04-23 19:46 | 54.91448 | 8.33853 | 266 ft | 78 kts | 322° |
| 2026-04-23 19:47 | 54.91891 | 8.33216 | 481 ft | 86 kts | 318° |
| 2026-04-23 19:47 | 54.92299 | 8.32451 | 748 ft | 86 kts | 292° |
| 2026-04-23 19:47 | 54.92230 | 8.31453 | 957 ft | 93 kts | 235° |
| 2026-04-23 19:47 | 54.91621 | 8.31016 | 1046 ft | 111 kts | 186° |
| 2026-04-23 19:48 | 54.90821 | 8.31136 | 1082 ft | 120 kts | 171° |
| 2026-04-23 19:48 | 54.90036 | 8.31552 | 1151 ft | 115 kts | 159° |
| 2026-04-23 19:48 | 54.89312 | 8.32149 | 1117 ft | 117 kts | 151° |
| 2026-04-23 19:48 | 54.88631 | 8.32908 | 1113 ft | 116 kts | 146° |
| 2026-04-23 19:49 | 54.87999 | 8.33763 | 1068 ft | 118 kts | 140° |
| 2026-04-23 19:49 | 54.87447 | 8.34875 | 916 ft | 125 kts | 120° |
| 2026-04-23 19:49 | 54.87282 | 8.36353 | 817 ft | 125 kts | 82° |
| 2026-04-23 19:49 | 54.87578 | 8.37688 | 589 ft | 116 kts | 52° |
| 2026-04-23 19:50 | 54.88223 | 8.38182 | 467 ft | 94 kts | 348° |
| 2026-04-23 19:50 | 54.88735 | 8.37521 | 401 ft | 91 kts | 314° |
| 2026-04-23 19:50 | 54.89135 | 8.36824 | 417 ft | 77 kts | 316° |
| 2026-04-23 19:50 | 54.89544 | 8.36231 | 289 ft | 75 kts | 324° |
| 2026-04-23 19:51 | 54.89960 | 8.35718 | 174 ft | 72 kts | 324° |
| 2026-04-23 19:51 | 54.90329 | 8.35267 | 81 ft | 57 kts | 323° |
| 2026-04-23 19:51 | 54.90646 | 8.34877 | 42 ft | 55 kts | 324° |
| 2026-04-23 19:51 | 54.90978 | 8.34481 | 57 ft | 63 kts | 327° |
| 2026-04-23 19:52 | 54.91334 | 8.34051 | 196 ft | 62 kts | 324° |
| 2026-04-23 19:52 | 54.91310 | 8.33994 | 254 ft | 64 kts | 323° |
| 2026-04-23 19:52 | 54.91649 | 8.33525 | 402 ft | 60 kts | 320° |
| 2026-04-23 19:52 | 54.91926 | 8.32989 | 488 ft | 66 kts | 290° |
| 2026-04-23 19:53 | 54.91962 | 8.32248 | 573 ft | 68 kts | 256° |
| 2026-04-23 19:53 | 54.91641 | 8.31401 | 619 ft | 96 kts | 212° |
| 2026-04-23 19:53 | 54.90946 | 8.31231 | 741 ft | 106 kts | 177° |
| 2026-04-23 19:53 | 54.90293 | 8.30980 | 1008 ft | 96 kts | 220° |
| 2026-04-23 19:54 | 54.89822 | 8.30089 | 1134 ft | 104 kts | 230° |
| 2026-04-23 19:54 | 54.89335 | 8.29148 | 1291 ft | 105 kts | 227° |
| 2026-04-23 19:54 | 54.88787 | 8.28326 | 1466 ft | 104 kts | 219° |
| 2026-04-23 19:54 | 54.88175 | 8.27633 | 1578 ft | 110 kts | 211° |
| 2026-04-23 19:55 | 54.87451 | 8.27037 | 1614 ft | 116 kts | 204° |
| 2026-04-23 19:55 | 54.86695 | 8.26530 | 1674 ft | 118 kts | 203° |
| 2026-04-23 19:55 | 54.85949 | 8.26006 | 1733 ft | 118 kts | 202° |
| 2026-04-23 19:55 | 54.85194 | 8.25555 | 1923 ft | 109 kts | 199° |
| 2026-04-23 19:56 | 54.84459 | 8.25256 | 2029 ft | 112 kts | 193° |
| 2026-04-23 19:56 | 54.83695 | 8.25341 | 2114 ft | 116 kts | 169° |
| 2026-04-23 19:56 | 54.82902 | 8.25639 | 2192 ft | 117 kts | 169° |
| 2026-04-23 19:56 | 54.82112 | 8.25924 | 2274 ft | 117 kts | 171° |
| 2026-04-23 19:57 | 54.81304 | 8.26210 | 2316 ft | 120 kts | 169° |
| 2026-04-23 19:57 | 54.80473 | 8.26469 | 2321 ft | 122 kts | 171° |
| 2026-04-23 19:57 | 54.79657 | 8.26827 | 2379 ft | 120 kts | 165° |
| 2026-04-23 19:57 | 54.78822 | 8.27137 | 2406 ft | 121 kts | 170° |
| 2026-04-23 19:58 | 54.78011 | 8.27421 | 2459 ft | 120 kts | 171° |
| 2026-04-23 19:58 | 54.77185 | 8.27674 | 2508 ft | 120 kts | 170° |
| 2026-04-23 19:58 | 54.76378 | 8.27998 | 2553 ft | 121 kts | 167° |
| 2026-04-23 19:58 | 54.75554 | 8.28359 | 2564 ft | 122 kts | 167° |
| 2026-04-23 19:59 | 54.74722 | 8.28684 | 2607 ft | 121 kts | 170° |
| 2026-04-23 19:59 | 54.73901 | 8.28932 | 2632 ft | 121 kts | 171° |
| 2026-04-23 19:59 | 54.73072 | 8.29210 | 2667 ft | 121 kts | 170° |
| 2026-04-23 19:59 | 54.72242 | 8.29548 | 2696 ft | 121 kts | 169° |
| 2026-04-23 20:00 | 54.71418 | 8.29886 | 2720 ft | 122 kts | 167° |
| 2026-04-23 20:00 | 54.70577 | 8.30142 | 2739 ft | 122 kts | 173° |
| 2026-04-23 20:00 | 54.69751 | 8.30367 | 2782 ft | 121 kts | 172° |
| 2026-04-23 20:00 | 54.68919 | 8.30605 | 2794 ft | 122 kts | 170° |
| 2026-04-23 20:01 | 54.68094 | 8.30930 | 2827 ft | 121 kts | 167° |
| 2026-04-23 20:01 | 54.67295 | 8.31343 | 2853 ft | 122 kts | 162° |
| 2026-04-23 20:01 | 54.66523 | 8.31953 | 2874 ft | 123 kts | 155° |
| 2026-04-23 20:01 | 54.65734 | 8.32542 | 2858 ft | 125 kts | 159° |
| 2026-04-23 20:02 | 54.64961 | 8.33171 | 2921 ft | 121 kts | 154° |
| 2026-04-23 20:02 | 54.64218 | 8.33878 | 2926 ft | 123 kts | 150° |
| 2026-04-23 20:02 | 54.63494 | 8.34656 | 2964 ft | 122 kts | 148° |
| 2026-04-23 20:02 | 54.62813 | 8.35541 | 2974 ft | 123 kts | 141° |
| 2026-04-23 20:03 | 54.62166 | 8.36511 | 2997 ft | 123 kts | 137° |
| 2026-04-23 20:03 | 54.61599 | 8.37616 | 3010 ft | 124 kts | 131° |
| 2026-04-23 20:03 | 54.61006 | 8.38716 | 3027 ft | 123 kts | 134° |
| 2026-04-23 20:03 | 54.60418 | 8.39797 | 3040 ft | 124 kts | 136° |
| 2026-04-23 20:04 | 54.59804 | 8.40827 | 3060 ft | 123 kts | 138° |
| 2026-04-23 20:04 | 54.59185 | 8.41849 | 3084 ft | 123 kts | 136° |
| 2026-04-23 20:04 | 54.58596 | 8.42919 | 3095 ft | 124 kts | 134° |
| 2026-04-23 20:04 | 54.58021 | 8.44010 | 3121 ft | 123 kts | 134° |
| 2026-04-23 20:05 | 54.57443 | 8.45107 | 3135 ft | 124 kts | 131° |
| 2026-04-23 20:05 | 54.56900 | 8.46267 | 3155 ft | 123 kts | 128° |
| 2026-04-23 20:05 | 54.56397 | 8.47461 | 3174 ft | 123 kts | 126° |
| 2026-04-23 20:05 | 54.55911 | 8.48684 | 3187 ft | 124 kts | 124° |
| 2026-04-23 20:06 | 54.55434 | 8.49908 | 3206 ft | 123 kts | 128° |
| 2026-04-23 20:06 | 54.54921 | 8.51098 | 3221 ft | 124 kts | 128° |
| 2026-04-23 20:06 | 54.54399 | 8.52277 | 3231 ft | 124 kts | 129° |
| 2026-04-23 20:06 | 54.53868 | 8.53439 | 3250 ft | 123 kts | 130° |
| 2026-04-23 20:07 | 54.53326 | 8.54584 | 3252 ft | 124 kts | 130° |
| 2026-04-23 20:07 | 54.52990 | 8.55920 | 3230 ft | 126 kts | 85° |
| 2026-04-23 20:07 | 54.52996 | 8.57386 | 3241 ft | 125 kts | 117° |
| 2026-04-23 20:07 | 54.52465 | 8.58553 | 3254 ft | 124 kts | 130° |
| 2026-04-23 20:08 | 54.51932 | 8.59666 | 3243 ft | 116 kts | 131° |
| 2026-04-23 20:08 | 54.51433 | 8.60703 | 3236 ft | 108 kts | 131° |
| 2026-04-23 20:08 | 54.50941 | 8.61732 | 3246 ft | 115 kts | 131° |
| 2026-04-23 20:08 | 54.50423 | 8.62810 | 3251 ft | 118 kts | 131° |
| 2026-04-23 20:09 | 54.49894 | 8.63910 | 3255 ft | 120 kts | 131° |
| 2026-04-23 20:09 | 54.49354 | 8.65032 | 3254 ft | 122 kts | 131° |
| 2026-04-23 20:09 | 54.48809 | 8.66160 | 3252 ft | 123 kts | 131° |
| 2026-04-23 20:09 | 54.48260 | 8.67302 | 3253 ft | 124 kts | 131° |
| 2026-04-23 20:10 | 54.47896 | 8.68059 | 3253 ft | 124 kts | 131° |
| 2026-04-23 20:10 | 54.47158 | 8.69591 | 3255 ft | 125 kts | 131° |
| 2026-04-23 20:10 | 54.46599 | 8.70750 | 3252 ft | 125 kts | 130° |
| 2026-04-23 20:10 | 54.46047 | 8.71893 | 3252 ft | 125 kts | 131° |
| 2026-04-23 20:11 | 54.45472 | 8.73011 | 3253 ft | 125 kts | 136° |
| 2026-04-23 20:11 | 54.44867 | 8.74078 | 3253 ft | 125 kts | 135° |
| 2026-04-23 20:11 | 54.44267 | 8.75158 | 3252 ft | 125 kts | 135° |
| 2026-04-23 20:11 | 54.43666 | 8.76242 | 3253 ft | 126 kts | 135° |
| 2026-04-23 20:12 | 54.43058 | 8.77339 | 3253 ft | 127 kts | 135° |
| 2026-04-23 20:12 | 54.42459 | 8.78415 | 3245 ft | 124 kts | 135° |
| 2026-04-23 20:12 | 54.41858 | 8.79496 | 3248 ft | 126 kts | 135° |
| 2026-04-23 20:12 | 54.41250 | 8.80592 | 3249 ft | 127 kts | 135° |
| 2026-04-23 20:13 | 54.40642 | 8.81688 | 3249 ft | 127 kts | 135° |
| 2026-04-23 20:13 | 54.40032 | 8.82785 | 3251 ft | 127 kts | 135° |
| 2026-04-23 20:13 | 54.39421 | 8.83881 | 3251 ft | 127 kts | 135° |
| 2026-04-23 20:13 | 54.38802 | 8.84968 | 3251 ft | 127 kts | 138° |
| 2026-04-23 20:14 | 54.38148 | 8.85993 | 3252 ft | 127 kts | 139° |
| 2026-04-23 20:14 | 54.37495 | 8.87014 | 3251 ft | 127 kts | 139° |
| 2026-04-23 20:14 | 54.36840 | 8.88039 | 3252 ft | 127 kts | 139° |
| 2026-04-23 20:14 | 54.36185 | 8.89058 | 3252 ft | 128 kts | 139° |
| 2026-04-23 20:15 | 54.35526 | 8.90087 | 3252 ft | 128 kts | 139° |
| 2026-04-23 20:15 | 54.34870 | 8.91110 | 3251 ft | 128 kts | 139° |
| 2026-04-23 20:15 | 54.34214 | 8.92134 | 3251 ft | 127 kts | 139° |
| 2026-04-23 20:15 | 54.33559 | 8.93157 | 3251 ft | 127 kts | 139° |
| 2026-04-23 20:16 | 54.32895 | 8.94193 | 3250 ft | 127 kts | 139° |
| 2026-04-23 20:16 | 54.32243 | 8.95210 | 3250 ft | 127 kts | 139° |
| 2026-04-23 20:16 | 54.31566 | 8.96263 | 3250 ft | 127 kts | 139° |
| 2026-04-23 20:16 | 54.30922 | 8.97268 | 3249 ft | 127 kts | 139° |
| 2026-04-23 20:17 | 54.30264 | 8.98292 | 3250 ft | 127 kts | 139° |
| 2026-04-23 20:17 | 54.29620 | 8.99294 | 3250 ft | 127 kts | 139° |
| 2026-04-23 20:17 | 54.28966 | 9.00314 | 3250 ft | 127 kts | 139° |
| 2026-04-23 20:17 | 54.28309 | 9.01337 | 3249 ft | 128 kts | 139° |
| 2026-04-23 20:18 | 54.27643 | 9.02374 | 3250 ft | 128 kts | 139° |
| 2026-04-23 20:18 | 54.26986 | 9.03398 | 3249 ft | 128 kts | 139° |
| 2026-04-23 20:18 | 54.26339 | 9.04402 | 3249 ft | 128 kts | 139° |
| 2026-04-23 20:18 | 54.25670 | 9.05440 | 3249 ft | 128 kts | 139° |
| 2026-04-23 20:19 | 54.25013 | 9.06459 | 3249 ft | 128 kts | 139° |
| 2026-04-23 20:19 | 54.24356 | 9.07481 | 3248 ft | 128 kts | 139° |
| 2026-04-23 20:19 | 54.23914 | 9.08169 | 3248 ft | 128 kts | 139° |
| 2026-04-23 20:19 | 54.23245 | 9.09207 | 3249 ft | 128 kts | 139° |
| 2026-04-23 20:20 | 54.22587 | 9.10229 | 3248 ft | 128 kts | 139° |
| 2026-04-23 20:20 | 54.21917 | 9.11266 | 3248 ft | 127 kts | 139° |
| 2026-04-23 20:20 | 54.21274 | 9.12264 | 3247 ft | 127 kts | 139° |
| 2026-04-23 20:20 | 54.20617 | 9.13281 | 3247 ft | 127 kts | 139° |
| 2026-04-23 20:21 | 54.19952 | 9.14313 | 3248 ft | 128 kts | 139° |
| 2026-04-23 20:21 | 54.19304 | 9.15318 | 3247 ft | 128 kts | 139° |
| 2026-04-23 20:21 | 54.18646 | 9.16338 | 3246 ft | 127 kts | 139° |
| 2026-04-23 20:21 | 54.17991 | 9.17353 | 3246 ft | 127 kts | 139° |
| 2026-04-23 20:22 | 54.17327 | 9.18382 | 3246 ft | 127 kts | 139° |
| 2026-04-23 20:22 | 54.16671 | 9.19397 | 3245 ft | 127 kts | 139° |
| 2026-04-23 20:22 | 54.16015 | 9.20415 | 3246 ft | 127 kts | 139° |
| 2026-04-23 20:22 | 54.15353 | 9.21443 | 3270 ft | 125 kts | 139° |
| 2026-04-23 20:23 | 54.14712 | 9.22437 | 3266 ft | 127 kts | 139° |
| 2026-04-23 20:23 | 54.14060 | 9.23450 | 3267 ft | 127 kts | 139° |
| 2026-04-23 20:23 | 54.13419 | 9.24318 | 2067 ft | 132 kts | 158° |
| 2026-04-23 20:23 | 54.12537 | 9.24735 | 1936 ft | 130 kts | 160° |
| 2026-04-23 20:24 | 54.11863 | 9.25626 | 2024 ft | 121 kts | 139° |
| 2026-04-23 20:24 | 54.11246 | 9.26579 | 2143 ft | 119 kts | 139° |
| 2026-04-23 20:24 | 54.10639 | 9.27523 | 2266 ft | 118 kts | 139° |
| 2026-04-23 20:24 | 54.10036 | 9.28458 | 2391 ft | 117 kts | 139° |
| 2026-04-23 20:25 | 54.09433 | 9.29394 | 2513 ft | 117 kts | 139° |
| 2026-04-23 20:25 | 54.08832 | 9.30327 | 2637 ft | 116 kts | 139° |
| 2026-04-23 20:25 | 54.08235 | 9.31255 | 2761 ft | 116 kts | 139° |
| 2026-04-23 20:25 | 54.07638 | 9.32181 | 2886 ft | 116 kts | 139° |
| 2026-04-23 20:26 | 54.07044 | 9.33104 | 3010 ft | 116 kts | 139° |
| 2026-04-23 20:26 | 54.06449 | 9.34027 | 3134 ft | 115 kts | 139° |
| 2026-04-23 20:26 | 54.05845 | 9.34961 | 3181 ft | 121 kts | 139° |
| 2026-04-23 20:26 | 54.05209 | 9.35943 | 3187 ft | 125 kts | 139° |
| 2026-04-23 20:27 | 54.04559 | 9.36946 | 3189 ft | 127 kts | 139° |
| 2026-04-23 20:27 | 54.03903 | 9.37960 | 3190 ft | 128 kts | 139° |
| 2026-04-23 20:27 | 54.03247 | 9.38977 | 3189 ft | 128 kts | 136° |
| 2026-04-23 20:27 | 54.02848 | 9.40320 | 3180 ft | 129 kts | 110° |
| 2026-04-23 20:28 | 54.02538 | 9.41744 | 3181 ft | 128 kts | 111° |
| 2026-04-23 20:28 | 54.02233 | 9.43156 | 3179 ft | 127 kts | 111° |
| 2026-04-23 20:28 | 54.01926 | 9.44580 | 3178 ft | 126 kts | 111° |
| 2026-04-23 20:28 | 54.01623 | 9.45986 | 3177 ft | 126 kts | 111° |
| 2026-04-23 20:29 | 54.01325 | 9.47369 | 3176 ft | 126 kts | 111° |